sensor_id;sensor_type;location;lat;lon;timestamp;P1;durP1;ratioP1;P2;durP2;ratioP2
37063;SDS011;23211;53.912;9.138;2022-09-09T00:02:30;10.82;;;9.68;;
37063;SDS011;23211;53.912;9.138;2022-09-09T00:05:34;12.48;;;9.13;;
37063;SDS011;23211;53.912;9.138;2022-09-09T00:08:51;9.90;;;8.55;;
37063;SDS011;23211;53.912;9.138;2022-09-09T00:14:37;12.32;;;9.73;;
37063;SDS011;23211;53.912;9.138;2022-09-09T00:21:23;19.35;;;8.85;;
37063;SDS011;23211;53.912;9.138;2022-09-09T00:24:32;26.45;;;9.30;;
37063;SDS011;23211;53.912;9.138;2022-09-09T00:30:24;10.18;;;8.82;;
37063;SDS011;23211;53.912;9.138;2022-09-09T00:33:12;18.05;;;9.95;;
37063;SDS011;23211;53.912;9.138;2022-09-09T00:36:00;20.35;;;10.45;;
37063;SDS011;23211;53.912;9.138;2022-09-09T00:38:49;19.30;;;10.55;;
37063;SDS011;23211;53.912;9.138;2022-09-09T00:41:51;10.33;;;9.23;;
37063;SDS011;23211;53.912;9.138;2022-09-09T00:44:52;16.08;;;9.30;;
37063;SDS011;23211;53.912;9.138;2022-09-09T00:47:50;10.63;;;9.52;;
37063;SDS011;23211;53.912;9.138;2022-09-09T00:56:29;11.25;;;8.43;;
37063;SDS011;23211;53.912;9.138;2022-09-09T01:02:39;48.70;;;9.63;;
37063;SDS011;23211;53.912;9.138;2022-09-09T01:05:37;11.52;;;9.20;;
37063;SDS011;23211;53.912;9.138;2022-09-09T01:08:36;8.95;;;8.05;;
37063;SDS011;23211;53.912;9.138;2022-09-09T01:14:51;17.08;;;9.23;;
37063;SDS011;23211;53.912;9.138;2022-09-09T01:20:45;25.00;;;9.32;;
37063;SDS011;23211;53.912;9.138;2022-09-09T01:26:59;22.17;;;11.55;;
37063;SDS011;23211;53.912;9.138;2022-09-09T01:29:47;25.88;;;10.80;;
37063;SDS011;23211;53.912;9.138;2022-09-09T01:32:42;13.23;;;10.38;;
37063;SDS011;23211;53.912;9.138;2022-09-09T01:38:37;28.23;;;10.90;;
37063;SDS011;23211;53.912;9.138;2022-09-09T01:41:23;11.10;;;9.15;;
37063;SDS011;23211;53.912;9.138;2022-09-09T01:44:24;52.85;;;11.68;;
37063;SDS011;23211;53.912;9.138;2022-09-09T01:47:11;17.98;;;10.55;;
37063;SDS011;23211;53.912;9.138;2022-09-09T01:50:13;10.50;;;9.43;;
37063;SDS011;23211;53.912;9.138;2022-09-09T01:53:02;21.88;;;9.88;;
37063;SDS011;23211;53.912;9.138;2022-09-09T01:56:02;14.18;;;9.20;;
37063;SDS011;23211;53.912;9.138;2022-09-09T01:59:18;13.40;;;9.75;;
37063;SDS011;23211;53.912;9.138;2022-09-09T02:02:13;11.55;;;9.20;;
37063;SDS011;23211;53.912;9.138;2022-09-09T02:08:08;12.75;;;10.38;;
37063;SDS011;23211;53.912;9.138;2022-09-09T02:11:24;12.88;;;11.02;;
37063;SDS011;23211;53.912;9.138;2022-09-09T02:14:21;16.02;;;10.88;;
37063;SDS011;23211;53.912;9.138;2022-09-09T02:17:11;13.93;;;11.82;;
37063;SDS011;23211;53.912;9.138;2022-09-09T02:20:18;13.98;;;11.65;;
37063;SDS011;23211;53.912;9.138;2022-09-09T02:23:11;13.57;;;11.10;;
37063;SDS011;23211;53.912;9.138;2022-09-09T02:26:00;16.33;;;12.23;;
37063;SDS011;23211;53.912;9.138;2022-09-09T02:28:48;15.55;;;12.55;;
37063;SDS011;23211;53.912;9.138;2022-09-09T02:31:36;22.08;;;13.13;;
37063;SDS011;23211;53.912;9.138;2022-09-09T02:34:28;16.20;;;13.93;;
37063;SDS011;23211;53.912;9.138;2022-09-09T02:37:18;16.75;;;13.70;;
37063;SDS011;23211;53.912;9.138;2022-09-09T02:40:12;16.55;;;13.43;;
37063;SDS011;23211;53.912;9.138;2022-09-09T02:43:04;19.45;;;15.85;;
37063;SDS011;23211;53.912;9.138;2022-09-09T02:46:03;19.40;;;15.25;;
37063;SDS011;23211;53.912;9.138;2022-09-09T02:49:36;19.40;;;13.85;;
37063;SDS011;23211;53.912;9.138;2022-09-09T02:52:18;19.52;;;15.77;;
37063;SDS011;23211;53.912;9.138;2022-09-09T02:55:16;20.70;;;15.80;;
37063;SDS011;23211;53.912;9.138;2022-09-09T02:58:12;20.95;;;15.70;;
37063;SDS011;23211;53.912;9.138;2022-09-09T03:01:04;21.08;;;16.63;;
37063;SDS011;23211;53.912;9.138;2022-09-09T03:03:50;25.10;;;16.55;;
37063;SDS011;23211;53.912;9.138;2022-09-09T03:06:37;19.73;;;15.43;;
37063;SDS011;23211;53.912;9.138;2022-09-09T03:09:34;21.02;;;16.60;;
37063;SDS011;23211;53.912;9.138;2022-09-09T03:12:19;36.17;;;17.63;;
37063;SDS011;23211;53.912;9.138;2022-09-09T03:15:06;38.17;;;14.63;;
37063;SDS011;23211;53.912;9.138;2022-09-09T03:17:53;43.90;;;15.43;;
37063;SDS011;23211;53.912;9.138;2022-09-09T03:20:40;54.40;;;15.07;;
37063;SDS011;23211;53.912;9.138;2022-09-09T03:23:27;71.03;;;14.80;;
37063;SDS011;23211;53.912;9.138;2022-09-09T03:26:13;45.20;;;14.48;;
37063;SDS011;23211;53.912;9.138;2022-09-09T03:29:04;21.77;;;15.30;;
37063;SDS011;23211;53.912;9.138;2022-09-09T03:31:52;19.48;;;14.48;;
37063;SDS011;23211;53.912;9.138;2022-09-09T03:34:38;21.73;;;17.05;;
37063;SDS011;23211;53.912;9.138;2022-09-09T03:37:29;19.73;;;17.55;;
37063;SDS011;23211;53.912;9.138;2022-09-09T03:40:15;21.17;;;16.48;;
37063;SDS011;23211;53.912;9.138;2022-09-09T03:43:03;22.52;;;17.25;;
37063;SDS011;23211;53.912;9.138;2022-09-09T03:45:49;19.13;;;15.95;;
37063;SDS011;23211;53.912;9.138;2022-09-09T03:48:36;17.35;;;15.52;;
37063;SDS011;23211;53.912;9.138;2022-09-09T03:51:23;21.25;;;15.10;;
37063;SDS011;23211;53.912;9.138;2022-09-09T03:54:09;21.70;;;16.40;;
37063;SDS011;23211;53.912;9.138;2022-09-09T03:56:56;17.60;;;15.63;;
37063;SDS011;23211;53.912;9.138;2022-09-09T03:59:42;19.17;;;16.38;;
37063;SDS011;23211;53.912;9.138;2022-09-09T04:02:29;18.13;;;15.35;;
37063;SDS011;23211;53.912;9.138;2022-09-09T04:05:14;22.77;;;16.50;;
37063;SDS011;23211;53.912;9.138;2022-09-09T04:08:02;20.17;;;16.70;;
37063;SDS011;23211;53.912;9.138;2022-09-09T04:10:49;19.20;;;16.30;;
37063;SDS011;23211;53.912;9.138;2022-09-09T04:13:36;19.92;;;17.02;;
37063;SDS011;23211;53.912;9.138;2022-09-09T04:16:24;26.92;;;15.95;;
37063;SDS011;23211;53.912;9.138;2022-09-09T04:19:11;21.77;;;17.50;;
37063;SDS011;23211;53.912;9.138;2022-09-09T04:22:00;22.95;;;16.38;;
37063;SDS011;23211;53.912;9.138;2022-09-09T04:24:46;22.23;;;16.90;;
37063;SDS011;23211;53.912;9.138;2022-09-09T04:27:32;21.90;;;16.35;;
37063;SDS011;23211;53.912;9.138;2022-09-09T04:30:17;18.27;;;15.85;;
37063;SDS011;23211;53.912;9.138;2022-09-09T04:33:03;18.52;;;15.88;;
37063;SDS011;23211;53.912;9.138;2022-09-09T04:35:49;23.20;;;16.38;;
37063;SDS011;23211;53.912;9.138;2022-09-09T04:38:37;20.05;;;16.08;;
37063;SDS011;23211;53.912;9.138;2022-09-09T04:41:23;26.77;;;16.17;;
37063;SDS011;23211;53.912;9.138;2022-09-09T04:44:12;18.63;;;14.30;;
37063;SDS011;23211;53.912;9.138;2022-09-09T04:46:57;22.08;;;14.52;;
37063;SDS011;23211;53.912;9.138;2022-09-09T04:49:43;30.30;;;13.13;;
37063;SDS011;23211;53.912;9.138;2022-09-09T04:52:30;42.28;;;14.35;;
37063;SDS011;23211;53.912;9.138;2022-09-09T04:55:15;14.68;;;12.48;;
37063;SDS011;23211;53.912;9.138;2022-09-09T04:58:04;19.90;;;12.80;;
37063;SDS011;23211;53.912;9.138;2022-09-09T05:00:50;17.83;;;13.98;;
37063;SDS011;23211;53.912;9.138;2022-09-09T05:03:37;22.77;;;13.50;;
37063;SDS011;23211;53.912;9.138;2022-09-09T05:06:25;28.35;;;14.98;;
37063;SDS011;23211;53.912;9.138;2022-09-09T05:09:17;16.30;;;13.10;;
37063;SDS011;23211;53.912;9.138;2022-09-09T05:12:04;16.40;;;12.65;;
37063;SDS011;23211;53.912;9.138;2022-09-09T05:14:55;15.07;;;12.77;;
37063;SDS011;23211;53.912;9.138;2022-09-09T05:17:41;15.65;;;13.73;;
37063;SDS011;23211;53.912;9.138;2022-09-09T05:20:28;22.83;;;12.52;;
37063;SDS011;23211;53.912;9.138;2022-09-09T05:23:13;19.77;;;14.15;;
37063;SDS011;23211;53.912;9.138;2022-09-09T05:26:00;15.90;;;13.52;;
37063;SDS011;23211;53.912;9.138;2022-09-09T05:28:48;15.50;;;12.48;;
37063;SDS011;23211;53.912;9.138;2022-09-09T05:31:34;13.93;;;12.20;;
37063;SDS011;23211;53.912;9.138;2022-09-09T05:34:23;14.32;;;11.60;;
37063;SDS011;23211;53.912;9.138;2022-09-09T05:37:09;14.98;;;11.93;;
37063;SDS011;23211;53.912;9.138;2022-09-09T05:39:56;16.40;;;12.55;;
37063;SDS011;23211;53.912;9.138;2022-09-09T05:42:43;13.02;;;11.30;;
37063;SDS011;23211;53.912;9.138;2022-09-09T05:45:29;14.25;;;12.43;;
37063;SDS011;23211;53.912;9.138;2022-09-09T05:48:14;12.30;;;10.35;;
37063;SDS011;23211;53.912;9.138;2022-09-09T05:51:01;13.85;;;11.52;;
37063;SDS011;23211;53.912;9.138;2022-09-09T05:53:49;14.20;;;10.85;;
37063;SDS011;23211;53.912;9.138;2022-09-09T05:56:36;13.77;;;11.25;;
37063;SDS011;23211;53.912;9.138;2022-09-09T05:59:22;16.63;;;12.55;;
37063;SDS011;23211;53.912;9.138;2022-09-09T06:02:11;14.70;;;10.77;;
37063;SDS011;23211;53.912;9.138;2022-09-09T06:04:58;12.85;;;10.90;;
37063;SDS011;23211;53.912;9.138;2022-09-09T06:07:44;14.23;;;10.45;;
37063;SDS011;23211;53.912;9.138;2022-09-09T06:10:30;12.15;;;10.82;;
37063;SDS011;23211;53.912;9.138;2022-09-09T06:13:16;13.35;;;10.07;;
37063;SDS011;23211;53.912;9.138;2022-09-09T06:16:03;15.02;;;10.77;;
37063;SDS011;23211;53.912;9.138;2022-09-09T06:18:50;15.23;;;10.85;;
37063;SDS011;23211;53.912;9.138;2022-09-09T06:21:36;14.40;;;10.82;;
37063;SDS011;23211;53.912;9.138;2022-09-09T06:24:24;14.77;;;11.60;;
37063;SDS011;23211;53.912;9.138;2022-09-09T06:27:10;16.83;;;10.57;;
37063;SDS011;23211;53.912;9.138;2022-09-09T06:29:56;14.52;;;10.88;;
37063;SDS011;23211;53.912;9.138;2022-09-09T06:32:42;13.80;;;10.10;;
37063;SDS011;23211;53.912;9.138;2022-09-09T06:35:28;17.50;;;10.90;;
37063;SDS011;23211;53.912;9.138;2022-09-09T06:38:14;11.50;;;9.63;;
37063;SDS011;23211;53.912;9.138;2022-09-09T06:41:00;12.68;;;10.18;;
37063;SDS011;23211;53.912;9.138;2022-09-09T06:43:48;16.92;;;10.80;;
37063;SDS011;23211;53.912;9.138;2022-09-09T06:46:35;11.57;;;10.30;;
37063;SDS011;23211;53.912;9.138;2022-09-09T06:49:22;11.82;;;10.05;;
37063;SDS011;23211;53.912;9.138;2022-09-09T06:52:07;11.90;;;10.05;;
37063;SDS011;23211;53.912;9.138;2022-09-09T06:54:54;13.73;;;9.43;;
37063;SDS011;23211;53.912;9.138;2022-09-09T06:57:41;13.65;;;10.25;;
37063;SDS011;23211;53.912;9.138;2022-09-09T07:00:35;13.93;;;9.55;;
37063;SDS011;23211;53.912;9.138;2022-09-09T07:03:23;12.82;;;9.68;;
37063;SDS011;23211;53.912;9.138;2022-09-09T07:06:13;12.15;;;8.75;;
37063;SDS011;23211;53.912;9.138;2022-09-09T07:09:05;10.57;;;8.20;;
37063;SDS011;23211;53.912;9.138;2022-09-09T07:11:53;10.07;;;8.77;;
37063;SDS011;23211;53.912;9.138;2022-09-09T07:14:40;18.67;;;9.23;;
37063;SDS011;23211;53.912;9.138;2022-09-09T07:17:27;9.38;;;8.23;;
37063;SDS011;23211;53.912;9.138;2022-09-09T07:20:14;10.45;;;8.25;;
37063;SDS011;23211;53.912;9.138;2022-09-09T07:23:00;12.95;;;8.57;;
37063;SDS011;23211;53.912;9.138;2022-09-09T07:25:46;10.07;;;7.40;;
37063;SDS011;23211;53.912;9.138;2022-09-09T07:28:35;10.60;;;7.38;;
37063;SDS011;23211;53.912;9.138;2022-09-09T07:31:23;8.65;;;7.50;;
37063;SDS011;23211;53.912;9.138;2022-09-09T07:34:12;10.15;;;6.68;;
37063;SDS011;23211;53.912;9.138;2022-09-09T07:36:59;9.70;;;6.97;;
37063;SDS011;23211;53.912;9.138;2022-09-09T07:39:45;9.57;;;6.60;;
37063;SDS011;23211;53.912;9.138;2022-09-09T07:42:31;9.68;;;7.10;;
37063;SDS011;23211;53.912;9.138;2022-09-09T07:45:17;9.10;;;6.65;;
37063;SDS011;23211;53.912;9.138;2022-09-09T07:48:03;8.30;;;7.03;;
37063;SDS011;23211;53.912;9.138;2022-09-09T07:50:51;9.60;;;6.75;;
37063;SDS011;23211;53.912;9.138;2022-09-09T07:53:40;9.48;;;6.85;;
37063;SDS011;23211;53.912;9.138;2022-09-09T07:56:26;11.43;;;7.18;;
37063;SDS011;23211;53.912;9.138;2022-09-09T07:59:12;10.93;;;6.93;;
37063;SDS011;23211;53.912;9.138;2022-09-09T08:02:00;10.55;;;7.70;;
37063;SDS011;23211;53.912;9.138;2022-09-09T08:04:49;9.60;;;6.40;;
37063;SDS011;23211;53.912;9.138;2022-09-09T08:07:37;10.10;;;6.32;;
37063;SDS011;23211;53.912;9.138;2022-09-09T08:10:23;12.02;;;6.97;;
37063;SDS011;23211;53.912;9.138;2022-09-09T08:13:10;8.98;;;6.22;;
37063;SDS011;23211;53.912;9.138;2022-09-09T08:16:03;7.13;;;6.07;;
37063;SDS011;23211;53.912;9.138;2022-09-09T08:18:51;8.13;;;6.03;;
37063;SDS011;23211;53.912;9.138;2022-09-09T08:21:39;9.55;;;5.88;;
37063;SDS011;23211;53.912;9.138;2022-09-09T08:24:26;9.30;;;6.60;;
37063;SDS011;23211;53.912;9.138;2022-09-09T08:27:12;6.20;;;5.15;;
37063;SDS011;23211;53.912;9.138;2022-09-09T08:29:58;11.75;;;6.55;;
37063;SDS011;23211;53.912;9.138;2022-09-09T08:32:44;8.93;;;6.25;;
37063;SDS011;23211;53.912;9.138;2022-09-09T08:35:31;7.70;;;6.10;;
37063;SDS011;23211;53.912;9.138;2022-09-09T08:38:18;7.47;;;5.30;;
37063;SDS011;23211;53.912;9.138;2022-09-09T08:41:15;11.23;;;5.63;;
37063;SDS011;23211;53.912;9.138;2022-09-09T08:47:38;7.05;;;5.32;;
37063;SDS011;23211;53.912;9.138;2022-09-09T08:50:49;10.65;;;5.05;;
37063;SDS011;23211;53.912;9.138;2022-09-09T08:53:42;7.72;;;5.47;;
37063;SDS011;23211;53.912;9.138;2022-09-09T08:56:33;7.43;;;5.68;;
37063;SDS011;23211;53.912;9.138;2022-09-09T08:59:20;7.53;;;5.03;;
37063;SDS011;23211;53.912;9.138;2022-09-09T09:02:15;8.07;;;4.78;;
37063;SDS011;23211;53.912;9.138;2022-09-09T09:08:09;6.90;;;5.50;;
37063;SDS011;23211;53.912;9.138;2022-09-09T09:11:05;8.65;;;4.72;;
37063;SDS011;23211;53.912;9.138;2022-09-09T09:13:54;5.65;;;4.63;;
37063;SDS011;23211;53.912;9.138;2022-09-09T09:16:53;9.48;;;5.05;;
37063;SDS011;23211;53.912;9.138;2022-09-09T09:19:40;6.15;;;4.68;;
37063;SDS011;23211;53.912;9.138;2022-09-09T09:22:43;9.40;;;4.68;;
37063;SDS011;23211;53.912;9.138;2022-09-09T09:25:35;6.13;;;4.07;;
37063;SDS011;23211;53.912;9.138;2022-09-09T09:28:30;7.60;;;4.07;;
37063;SDS011;23211;53.912;9.138;2022-09-09T09:31:24;6.20;;;4.13;;
37063;SDS011;23211;53.912;9.138;2022-09-09T09:34:12;5.45;;;4.07;;
37063;SDS011;23211;53.912;9.138;2022-09-09T09:36:59;8.88;;;4.25;;
37063;SDS011;23211;53.912;9.138;2022-09-09T09:39:49;10.65;;;4.70;;
37063;SDS011;23211;53.912;9.138;2022-09-09T09:42:35;4.80;;;3.72;;
37063;SDS011;23211;53.912;9.138;2022-09-09T09:45:35;5.13;;;3.53;;
37063;SDS011;23211;53.912;9.138;2022-09-09T09:48:27;6.05;;;3.80;;
37063;SDS011;23211;53.912;9.138;2022-09-09T09:51:14;5.80;;;3.65;;
37063;SDS011;23211;53.912;9.138;2022-09-09T09:57:22;6.43;;;3.88;;
37063;SDS011;23211;53.912;9.138;2022-09-09T10:03:26;5.70;;;3.22;;
37063;SDS011;23211;53.912;9.138;2022-09-09T10:06:28;5.25;;;3.25;;
37063;SDS011;23211;53.912;9.138;2022-09-09T10:09:26;4.93;;;2.53;;
37063;SDS011;23211;53.912;9.138;2022-09-09T10:31:29;2.65;;;0.65;;
37063;SDS011;23211;53.912;9.138;2022-09-09T10:34:26;2.10;;;1.00;;
37063;SDS011;23211;53.912;9.138;2022-09-09T10:37:37;2.28;;;0.73;;
37063;SDS011;23211;53.912;9.138;2022-09-09T10:43:25;2.00;;;0.93;;
37063;SDS011;23211;53.912;9.138;2022-09-09T10:49:36;3.08;;;0.93;;
37063;SDS011;23211;53.912;9.138;2022-09-09T10:56:20;2.53;;;0.88;;
37063;SDS011;23211;53.912;9.138;2022-09-09T10:59:12;4.25;;;0.82;;
37063;SDS011;23211;53.912;9.138;2022-09-09T11:02:16;2.72;;;0.93;;
37063;SDS011;23211;53.912;9.138;2022-09-09T11:05:20;3.38;;;0.70;;
37063;SDS011;23211;53.912;9.138;2022-09-09T11:08:17;2.28;;;0.82;;
37063;SDS011;23211;53.912;9.138;2022-09-09T11:11:12;3.08;;;0.90;;
37063;SDS011;23211;53.912;9.138;2022-09-09T11:14:21;2.05;;;0.70;;
37063;SDS011;23211;53.912;9.138;2022-09-09T11:17:15;1.63;;;0.73;;
37063;SDS011;23211;53.912;9.138;2022-09-09T11:20:06;4.13;;;0.90;;
37063;SDS011;23211;53.912;9.138;2022-09-09T11:23:02;1.58;;;0.80;;
37063;SDS011;23211;53.912;9.138;2022-09-09T11:25:55;1.67;;;0.60;;
37063;SDS011;23211;53.912;9.138;2022-09-09T11:28:53;1.45;;;0.82;;
37063;SDS011;23211;53.912;9.138;2022-09-09T11:32:30;4.05;;;1.05;;
37063;SDS011;23211;53.912;9.138;2022-09-09T11:35:31;3.10;;;1.00;;
37063;SDS011;23211;53.912;9.138;2022-09-09T11:41:32;2.55;;;1.20;;
37063;SDS011;23211;53.912;9.138;2022-09-09T11:44:25;1.88;;;1.02;;
37063;SDS011;23211;53.912;9.138;2022-09-09T11:56:00;5.45;;;1.40;;
37063;SDS011;23211;53.912;9.138;2022-09-09T11:58:56;1.65;;;0.85;;
37063;SDS011;23211;53.912;9.138;2022-09-09T12:01:57;4.50;;;1.00;;
37063;SDS011;23211;53.912;9.138;2022-09-09T12:05:07;4.78;;;0.90;;
37063;SDS011;23211;53.912;9.138;2022-09-09T12:07:58;3.80;;;0.90;;
37063;SDS011;23211;53.912;9.138;2022-09-09T12:10:55;4.95;;;0.95;;
37063;SDS011;23211;53.912;9.138;2022-09-09T12:13:51;5.53;;;1.27;;
37063;SDS011;23211;53.912;9.138;2022-09-09T12:16:38;2.17;;;0.90;;
37063;SDS011;23211;53.912;9.138;2022-09-09T12:19:25;2.22;;;1.30;;
37063;SDS011;23211;53.912;9.138;2022-09-09T12:22:23;1.65;;;1.10;;
37063;SDS011;23211;53.912;9.138;2022-09-09T12:34:10;7.53;;;1.15;;
37063;SDS011;23211;53.912;9.138;2022-09-09T12:37:02;5.28;;;1.50;;
37063;SDS011;23211;53.912;9.138;2022-09-09T12:39:57;5.03;;;1.40;;
37063;SDS011;23211;53.912;9.138;2022-09-09T12:42:44;2.53;;;1.67;;
37063;SDS011;23211;53.912;9.138;2022-09-09T12:45:31;3.85;;;1.40;;
37063;SDS011;23211;53.912;9.138;2022-09-09T12:48:18;3.50;;;1.73;;
37063;SDS011;23211;53.912;9.138;2022-09-09T12:51:07;3.22;;;1.55;;
37063;SDS011;23211;53.912;9.138;2022-09-09T12:54:04;1.58;;;1.35;;
37063;SDS011;23211;53.912;9.138;2022-09-09T12:56:50;4.22;;;1.55;;
37063;SDS011;23211;53.912;9.138;2022-09-09T12:59:37;4.85;;;1.70;;
37063;SDS011;23211;53.912;9.138;2022-09-09T13:02:26;5.35;;;1.83;;
37063;SDS011;23211;53.912;9.138;2022-09-09T13:05:15;3.22;;;1.40;;
37063;SDS011;23211;53.912;9.138;2022-09-09T13:08:04;3.63;;;1.60;;
37063;SDS011;23211;53.912;9.138;2022-09-09T13:10:53;2.38;;;1.17;;
37063;SDS011;23211;53.912;9.138;2022-09-09T13:16:29;2.25;;;1.33;;
37063;SDS011;23211;53.912;9.138;2022-09-09T13:19:17;4.25;;;1.30;;
37063;SDS011;23211;53.912;9.138;2022-09-09T13:25:23;3.65;;;1.70;;
37063;SDS011;23211;53.912;9.138;2022-09-09T13:28:18;3.10;;;1.20;;
37063;SDS011;23211;53.912;9.138;2022-09-09T13:31:19;4.88;;;1.70;;
37063;SDS011;23211;53.912;9.138;2022-09-09T13:34:26;3.25;;;1.42;;
37063;SDS011;23211;53.912;9.138;2022-09-09T13:37:23;3.10;;;1.60;;
37063;SDS011;23211;53.912;9.138;2022-09-09T13:40:20;6.65;;;1.40;;
37063;SDS011;23211;53.912;9.138;2022-09-09T13:46:23;15.10;;;2.17;;
37063;SDS011;23211;53.912;9.138;2022-09-09T13:52:31;4.38;;;1.52;;
37063;SDS011;23211;53.912;9.138;2022-09-09T13:55:12;5.18;;;1.63;;
37063;SDS011;23211;53.912;9.138;2022-09-09T13:57:59;5.43;;;1.95;;
37063;SDS011;23211;53.912;9.138;2022-09-09T14:00:46;5.50;;;1.80;;
37063;SDS011;23211;53.912;9.138;2022-09-09T14:03:32;6.97;;;2.20;;
37063;SDS011;23211;53.912;9.138;2022-09-09T14:06:19;4.82;;;2.05;;
37063;SDS011;23211;53.912;9.138;2022-09-09T14:09:08;7.10;;;2.38;;
37063;SDS011;23211;53.912;9.138;2022-09-09T14:11:56;6.97;;;2.22;;
37063;SDS011;23211;53.912;9.138;2022-09-09T14:14:42;7.10;;;2.08;;
37063;SDS011;23211;53.912;9.138;2022-09-09T14:17:28;3.03;;;1.83;;
37063;SDS011;23211;53.912;9.138;2022-09-09T14:20:15;3.85;;;1.83;;
37063;SDS011;23211;53.912;9.138;2022-09-09T14:23:02;14.43;;;1.83;;
37063;SDS011;23211;53.912;9.138;2022-09-09T14:25:48;6.50;;;1.92;;
37063;SDS011;23211;53.912;9.138;2022-09-09T14:28:35;6.50;;;2.05;;
37063;SDS011;23211;53.912;9.138;2022-09-09T14:31:22;6.78;;;2.03;;
37063;SDS011;23211;53.912;9.138;2022-09-09T14:34:09;8.75;;;1.60;;
37063;SDS011;23211;53.912;9.138;2022-09-09T14:36:56;4.35;;;1.48;;
37063;SDS011;23211;53.912;9.138;2022-09-09T14:39:42;4.50;;;1.35;;
37063;SDS011;23211;53.912;9.138;2022-09-09T14:42:29;4.80;;;1.58;;
37063;SDS011;23211;53.912;9.138;2022-09-09T14:45:15;4.30;;;1.48;;
37063;SDS011;23211;53.912;9.138;2022-09-09T14:48:01;4.05;;;1.58;;
37063;SDS011;23211;53.912;9.138;2022-09-09T14:50:48;4.65;;;1.30;;
37063;SDS011;23211;53.912;9.138;2022-09-09T14:53:34;3.45;;;1.33;;
37063;SDS011;23211;53.912;9.138;2022-09-09T14:56:21;1.60;;;0.93;;
37063;SDS011;23211;53.912;9.138;2022-09-09T14:59:09;3.20;;;1.00;;
37063;SDS011;23211;53.912;9.138;2022-09-09T15:01:55;4.75;;;1.35;;
37063;SDS011;23211;53.912;9.138;2022-09-09T15:04:41;1.40;;;0.68;;
37063;SDS011;23211;53.912;9.138;2022-09-09T15:07:27;2.03;;;0.90;;
37063;SDS011;23211;53.912;9.138;2022-09-09T15:10:13;3.17;;;1.15;;
37063;SDS011;23211;53.912;9.138;2022-09-09T15:13:00;2.47;;;1.05;;
37063;SDS011;23211;53.912;9.138;2022-09-09T15:15:45;4.22;;;0.90;;
37063;SDS011;23211;53.912;9.138;2022-09-09T15:18:31;2.72;;;0.90;;
37063;SDS011;23211;53.912;9.138;2022-09-09T15:21:19;1.60;;;0.82;;
37063;SDS011;23211;53.912;9.138;2022-09-09T15:24:06;2.53;;;0.88;;
37063;SDS011;23211;53.912;9.138;2022-09-09T15:26:53;2.33;;;1.08;;
37063;SDS011;23211;53.912;9.138;2022-09-09T15:29:39;4.40;;;0.85;;
37063;SDS011;23211;53.912;9.138;2022-09-09T15:32:25;1.88;;;0.82;;
37063;SDS011;23211;53.912;9.138;2022-09-09T15:35:11;3.60;;;1.08;;
37063;SDS011;23211;53.912;9.138;2022-09-09T15:37:56;5.70;;;1.30;;
37063;SDS011;23211;53.912;9.138;2022-09-09T15:40:43;2.88;;;0.90;;
37063;SDS011;23211;53.912;9.138;2022-09-09T15:43:29;4.50;;;1.38;;
37063;SDS011;23211;53.912;9.138;2022-09-09T15:46:25;2.80;;;1.10;;
37063;SDS011;23211;53.912;9.138;2022-09-09T15:49:15;1.45;;;0.90;;
37063;SDS011;23211;53.912;9.138;2022-09-09T15:52:05;2.50;;;1.00;;
37063;SDS011;23211;53.912;9.138;2022-09-09T15:54:51;4.10;;;0.95;;
37063;SDS011;23211;53.912;9.138;2022-09-09T15:57:36;2.92;;;0.98;;
37063;SDS011;23211;53.912;9.138;2022-09-09T16:00:22;2.85;;;1.05;;
37063;SDS011;23211;53.912;9.138;2022-09-09T16:03:09;6.63;;;0.95;;
37063;SDS011;23211;53.912;9.138;2022-09-09T16:05:57;3.08;;;1.23;;
37063;SDS011;23211;53.912;9.138;2022-09-09T16:08:44;4.43;;;1.30;;
37063;SDS011;23211;53.912;9.138;2022-09-09T16:11:33;2.28;;;0.90;;
37063;SDS011;23211;53.912;9.138;2022-09-09T16:14:21;3.42;;;1.45;;
37063;SDS011;23211;53.912;9.138;2022-09-09T16:17:07;1.75;;;1.27;;
37063;SDS011;23211;53.912;9.138;2022-09-09T16:19:53;2.80;;;1.15;;
37063;SDS011;23211;53.912;9.138;2022-09-09T16:22:39;2.33;;;1.35;;
37063;SDS011;23211;53.912;9.138;2022-09-09T16:25:25;5.05;;;1.40;;
37063;SDS011;23211;53.912;9.138;2022-09-09T16:28:11;4.80;;;2.08;;
37063;SDS011;23211;53.912;9.138;2022-09-09T16:30:57;5.95;;;1.83;;
37063;SDS011;23211;53.912;9.138;2022-09-09T16:33:46;3.25;;;2.00;;
37063;SDS011;23211;53.912;9.138;2022-09-09T16:36:34;4.78;;;2.03;;
37063;SDS011;23211;53.912;9.138;2022-09-09T16:39:21;5.25;;;2.03;;
37063;SDS011;23211;53.912;9.138;2022-09-09T16:42:07;4.95;;;2.05;;
37063;SDS011;23211;53.912;9.138;2022-09-09T16:44:53;2.90;;;1.30;;
37063;SDS011;23211;53.912;9.138;2022-09-09T16:47:38;3.70;;;1.20;;
37063;SDS011;23211;53.912;9.138;2022-09-09T16:50:24;3.15;;;1.27;;
37063;SDS011;23211;53.912;9.138;2022-09-09T16:53:10;4.03;;;1.25;;
37063;SDS011;23211;53.912;9.138;2022-09-09T16:55:56;5.55;;;1.00;;
37063;SDS011;23211;53.912;9.138;2022-09-09T16:58:42;4.63;;;1.17;;
37063;SDS011;23211;53.912;9.138;2022-09-09T17:01:31;7.40;;;1.15;;
37063;SDS011;23211;53.912;9.138;2022-09-09T17:04:19;9.38;;;1.40;;
37063;SDS011;23211;53.912;9.138;2022-09-09T17:07:09;9.32;;;0.90;;
37063;SDS011;23211;53.912;9.138;2022-09-09T17:09:55;7.35;;;1.10;;
37063;SDS011;23211;53.912;9.138;2022-09-09T17:12:41;2.08;;;1.00;;
37063;SDS011;23211;53.912;9.138;2022-09-09T17:15:27;3.65;;;1.20;;
37063;SDS011;23211;53.912;9.138;2022-09-09T17:18:13;3.80;;;1.15;;
37063;SDS011;23211;53.912;9.138;2022-09-09T17:21:02;3.90;;;1.05;;
37063;SDS011;23211;53.912;9.138;2022-09-09T17:23:49;5.07;;;1.02;;
37063;SDS011;23211;53.912;9.138;2022-09-09T17:26:36;3.35;;;1.00;;
37063;SDS011;23211;53.912;9.138;2022-09-09T17:29:23;3.33;;;1.17;;
37063;SDS011;23211;53.912;9.138;2022-09-09T17:32:10;1.73;;;1.20;;
37063;SDS011;23211;53.912;9.138;2022-09-09T17:34:55;2.75;;;1.30;;
37063;SDS011;23211;53.912;9.138;2022-09-09T17:37:41;2.42;;;1.40;;
37063;SDS011;23211;53.912;9.138;2022-09-09T17:40:27;1.35;;;1.10;;
37063;SDS011;23211;53.912;9.138;2022-09-09T17:43:13;2.72;;;1.13;;
37063;SDS011;23211;53.912;9.138;2022-09-09T17:46:09;7.55;;;1.35;;
37063;SDS011;23211;53.912;9.138;2022-09-09T17:49:07;4.75;;;1.60;;
37063;SDS011;23211;53.912;9.138;2022-09-09T17:51:55;10.35;;;5.47;;
37063;SDS011;23211;53.912;9.138;2022-09-09T17:54:41;10.48;;;6.45;;
37063;SDS011;23211;53.912;9.138;2022-09-09T17:57:27;10.15;;;4.45;;
37063;SDS011;23211;53.912;9.138;2022-09-09T18:00:13;5.63;;;2.45;;
37063;SDS011;23211;53.912;9.138;2022-09-09T18:02:59;3.25;;;1.73;;
37063;SDS011;23211;53.912;9.138;2022-09-09T18:05:45;1.73;;;1.23;;
37063;SDS011;23211;53.912;9.138;2022-09-09T18:08:31;4.90;;;1.63;;
37063;SDS011;23211;53.912;9.138;2022-09-09T18:11:19;2.42;;;1.10;;
37063;SDS011;23211;53.912;9.138;2022-09-09T18:14:07;3.25;;;1.13;;
37063;SDS011;23211;53.912;9.138;2022-09-09T18:16:57;2.50;;;1.08;;
37063;SDS011;23211;53.912;9.138;2022-09-09T18:19:44;1.83;;;1.02;;
37063;SDS011;23211;53.912;9.138;2022-09-09T18:22:30;5.68;;;1.10;;
37063;SDS011;23211;53.912;9.138;2022-09-09T18:25:18;2.30;;;1.10;;
37063;SDS011;23211;53.912;9.138;2022-09-09T18:28:03;3.13;;;0.95;;
37063;SDS011;23211;53.912;9.138;2022-09-09T18:30:50;2.35;;;0.98;;
37063;SDS011;23211;53.912;9.138;2022-09-09T18:33:37;1.67;;;0.90;;
37063;SDS011;23211;53.912;9.138;2022-09-09T18:36:29;2.33;;;1.02;;
37063;SDS011;23211;53.912;9.138;2022-09-09T18:39:18;3.58;;;1.17;;
37063;SDS011;23211;53.912;9.138;2022-09-09T18:42:05;2.10;;;0.90;;
37063;SDS011;23211;53.912;9.138;2022-09-09T18:44:51;4.30;;;1.10;;